createdAt,value
2023-02-14T00:02:54.795Z,11.27
2023-02-14T00:07:57.278Z,12.23
2023-02-14T00:12:59.700Z,10.73
2023-02-14T00:18:03.201Z,12.53
2023-02-14T00:23:05.837Z,11.83
2023-02-14T00:28:08.260Z,10.60
2023-02-14T00:33:10.873Z,11.10
2023-02-14T00:38:13.787Z,11.73
2023-02-14T00:43:16.280Z,12.00
2023-02-14T00:48:19.043Z,9.63
2023-02-14T00:53:21.590Z,11.90
2023-02-14T00:58:25.701Z,10.60
2023-02-14T01:03:29.942Z,12.17
2023-02-14T01:08:33.243Z,10.00
2023-02-14T01:13:35.733Z,10.47
2023-02-14T01:18:38.911Z,10.80
2023-02-14T01:23:41.782Z,11.53
2023-02-14T01:28:44.918Z,11.07
2023-02-14T01:33:49.540Z,11.57
2023-02-14T01:38:57.464Z,12.40
2023-02-14T01:44:27.126Z,9.87
2023-02-14T01:49:38.383Z,9.20
2023-02-14T01:54:46.227Z,10.27
2023-02-14T02:00:17.714Z,11.73
2023-02-14T02:05:23.902Z,9.83
2023-02-14T02:10:26.432Z,10.97
2023-02-14T02:15:34.538Z,12.30
2023-02-14T02:21:23.794Z,10.67
2023-02-14T02:26:48.199Z,12.20
2023-02-14T02:32:24.459Z,12.03
2023-02-14T02:37:43.036Z,11.07
2023-02-14T02:43:15.753Z,10.10
2023-02-14T02:48:23.713Z,10.17
2023-02-14T02:53:31.822Z,11.53
2023-02-14T02:58:38.020Z,10.43
2023-02-14T03:04:02.803Z,9.57
2023-02-14T03:09:36.113Z,10.30
2023-02-14T03:15:17.491Z,12.63
2023-02-14T03:20:35.474Z,10.23
2023-02-14T03:25:50.238Z,10.97
2023-02-14T03:31:04.843Z,12.53
2023-02-14T03:36:20.535Z,13.40
2023-02-14T03:41:28.691Z,10.73
2023-02-14T03:46:38.466Z,11.07
2023-02-14T03:51:46.048Z,12.20
2023-02-14T03:56:57.800Z,9.47
2023-02-14T04:02:31.231Z,10.63
2023-02-14T04:07:46.200Z,11.53
2023-02-14T04:12:49.477Z,12.47
2023-02-14T04:18:10.862Z,12.67
2023-02-14T04:23:13.329Z,13.37
2023-02-14T04:28:16.029Z,14.33
2023-02-14T04:33:18.642Z,14.83
2023-02-14T04:38:21.402Z,14.43
2023-02-14T04:43:23.854Z,13.47
2023-02-14T04:48:26.507Z,14.47
2023-02-14T04:53:28.942Z,15.73
2023-02-14T04:58:31.346Z,14.13
2023-02-14T05:03:33.843Z,14.10
2023-02-14T05:08:36.275Z,13.53
2023-02-14T05:13:38.701Z,13.87
2023-02-14T05:18:41.088Z,16.20
2023-02-14T05:23:43.507Z,14.80
2023-02-14T05:28:45.858Z,15.33
2023-02-14T05:33:48.725Z,14.07
2023-02-14T05:38:51.199Z,14.67
2023-02-14T05:43:53.597Z,16.67
2023-02-14T05:48:56.007Z,15.60
2023-02-14T05:54:00.214Z,14.53
2023-02-14T05:59:02.673Z,15.00
2023-02-14T06:04:05.113Z,16.40
2023-02-14T06:09:07.741Z,16.57
2023-02-14T06:14:10.379Z,15.00
2023-02-14T06:19:13.011Z,15.23
2023-02-14T06:24:15.590Z,15.03
2023-02-14T06:29:18.403Z,14.13
2023-02-14T06:34:21.103Z,15.73
2023-02-14T06:39:23.601Z,15.53
2023-02-14T06:44:26.268Z,14.73
2023-02-14T06:49:28.838Z,16.93
2023-02-14T06:54:31.322Z,15.10
2023-02-14T06:59:33.681Z,13.50
2023-02-14T07:04:36.084Z,14.20
2023-02-14T07:09:38.581Z,14.87
2023-02-14T07:14:41.287Z,15.13
2023-02-14T07:19:43.711Z,14.47
2023-02-14T07:24:46.128Z,16.50
2023-02-14T07:29:48.835Z,14.77
2023-02-14T07:34:52.156Z,15.70
2023-02-14T07:39:54.653Z,15.77
2023-02-14T07:44:57.251Z,15.37
2023-02-14T07:49:59.700Z,19.17
2023-02-14T07:55:02.236Z,17.17
2023-02-14T08:00:06.407Z,14.57
2023-02-14T08:05:15.062Z,14.17
2023-02-14T08:10:18.168Z,17.03
2023-02-14T08:15:39.350Z,16.73
2023-02-14T08:20:41.850Z,15.17
2023-02-14T08:25:44.270Z,15.67
2023-02-14T08:30:47.509Z,14.57
2023-02-14T08:35:51.369Z,16.57
2023-02-14T08:41:03.830Z,16.57
2023-02-14T08:46:07.615Z,17.13
2023-02-14T08:51:30.990Z,15.77
2023-02-14T08:56:33.491Z,15.47
2023-02-14T09:01:37.202Z,15.93
2023-02-14T09:06:40.157Z,15.00
2023-02-14T09:11:42.608Z,16.23
2023-02-14T09:16:45.077Z,15.67
2023-02-14T09:21:47.629Z,12.70
2023-02-14T09:26:50.515Z,17.93
2023-02-14T09:31:54.464Z,15.63
2023-02-14T09:37:15.792Z,16.17
2023-02-14T09:42:27.387Z,17.47
2023-02-14T09:47:45.838Z,15.27
2023-02-14T09:52:52.475Z,15.47
2023-02-14T09:58:17.790Z,16.23
2023-02-14T10:03:59.949Z,15.83
2023-02-14T10:09:32.947Z,16.00
2023-02-14T10:14:40.861Z,19.50
2023-02-14T10:19:57.868Z,15.50
2023-02-14T10:25:06.090Z,14.87
2023-02-14T10:30:19.281Z,18.77
2023-02-14T10:35:27.666Z,17.67
2023-02-14T10:40:38.960Z,13.07
2023-02-14T10:45:46.297Z,13.33
2023-02-14T10:51:19.171Z,15.83
2023-02-14T10:56:32.341Z,15.17
2023-02-14T11:01:35.151Z,18.97
2023-02-14T11:06:37.587Z,16.13
2023-02-14T11:11:52.518Z,15.20
2023-02-14T11:16:56.577Z,15.10
2023-02-14T11:22:00.535Z,16.97
2023-02-14T11:27:10.632Z,14.10
2023-02-14T11:32:23.302Z,15.77
2023-02-14T11:37:34.461Z,14.17
2023-02-14T11:42:45.428Z,16.47
2023-02-14T11:47:47.599Z,14.43
2023-02-14T11:52:57.172Z,10.43
2023-02-14T11:58:03.262Z,13.73
2023-02-14T12:03:06.986Z,13.77
2023-02-14T12:08:10.296Z,11.20
2023-02-14T12:13:12.252Z,15.17
2023-02-14T12:18:23.439Z,13.20
2023-02-14T12:23:42.099Z,15.87
2023-02-14T12:29:14.058Z,14.60
2023-02-14T12:34:19.045Z,13.40
2023-02-14T12:40:02.380Z,13.13
2023-02-14T12:45:22.565Z,14.07
2023-02-14T12:50:46.566Z,11.03
2023-02-14T12:56:10.829Z,12.20
2023-02-14T13:01:59.648Z,14.53
2023-02-14T13:07:26.135Z,13.30
2023-02-14T13:12:59.084Z,13.00
2023-02-14T13:18:18.624Z,11.93
2023-02-14T13:23:47.979Z,12.93
2023-02-14T13:28:57.709Z,13.03
2023-02-14T13:34:22.553Z,11.20
2023-02-14T13:39:39.115Z,12.90
2023-02-14T13:44:50.237Z,16.43
2023-02-14T13:50:02.177Z,13.70
2023-02-14T13:55:09.403Z,13.73
2023-02-14T14:00:22.257Z,16.57
2023-02-14T14:05:30.639Z,13.80
2023-02-14T14:10:55.698Z,13.43
2023-02-14T14:16:19.966Z,14.27
2023-02-14T14:21:29.599Z,15.53
2023-02-14T14:26:37.709Z,15.90
2023-02-14T14:31:41.808Z,15.30
2023-02-14T14:36:44.466Z,12.23
2023-02-14T14:41:47.455Z,16.90
2023-02-14T14:46:50.842Z,15.03
2023-02-14T14:51:53.575Z,13.43
2023-02-14T14:57:03.696Z,16.13
2023-02-14T15:02:30.480Z,15.07
2023-02-14T15:07:34.881Z,15.40
2023-02-14T15:12:56.166Z,14.03
2023-02-14T15:17:58.720Z,16.60
2023-02-14T15:23:03.038Z,16.93
2023-02-14T15:28:05.547Z,16.77
2023-02-14T15:33:10.785Z,15.03
2023-02-14T15:38:14.571Z,18.47
2023-02-14T15:43:22.040Z,15.23
2023-02-14T15:48:34.765Z,14.60
2023-02-14T15:53:53.684Z,16.10
2023-02-14T15:59:17.976Z,14.27
2023-02-14T16:04:26.912Z,17.77
2023-02-14T16:09:31.963Z,17.03
2023-02-14T16:14:36.573Z,14.80
2023-02-14T16:19:48.416Z,12.63
2023-02-14T16:24:51.056Z,17.37
2023-02-14T16:29:53.418Z,14.13
2023-02-14T16:34:55.438Z,14.10
2023-02-14T16:39:59.906Z,14.33
2023-02-14T16:45:02.160Z,16.30
2023-02-14T16:50:04.311Z,17.57
2023-02-14T16:55:15.342Z,17.07
2023-02-14T17:00:17.976Z,16.37
2023-02-14T17:05:20.469Z,17.33
2023-02-14T17:10:22.694Z,16.20
2023-02-14T17:15:27.380Z,14.67
2023-02-14T17:20:31.109Z,18.77
2023-02-14T17:25:33.216Z,17.47
2023-02-14T17:30:38.284Z,17.40
2023-02-14T17:35:40.332Z,16.00
2023-02-14T17:40:42.618Z,16.73
2023-02-14T17:45:44.672Z,15.47
2023-02-14T17:50:46.705Z,13.37
2023-02-14T17:55:49.398Z,12.67
2023-02-14T18:00:51.869Z,14.60
2023-02-14T18:06:00.864Z,13.47
2023-02-14T18:11:11.507Z,18.17
2023-02-14T18:16:19.444Z,15.03
2023-02-14T18:21:24.543Z,16.10
2023-02-14T18:26:27.020Z,17.73
2023-02-14T18:31:29.396Z,13.63
2023-02-14T18:36:32.388Z,13.57
2023-02-14T18:41:35.430Z,11.77
2023-02-14T18:46:37.705Z,15.57
2023-02-14T18:51:39.848Z,12.80
2023-02-14T18:56:42.162Z,16.23
2023-02-14T19:01:45.804Z,15.23
2023-02-14T19:06:49.585Z,16.23
2023-02-14T19:11:51.949Z,16.23
2023-02-14T19:16:55.465Z,16.67
2023-02-14T19:22:01.562Z,13.93
2023-02-14T19:27:03.872Z,13.33
2023-02-14T19:32:06.257Z,16.23
2023-02-14T19:37:08.555Z,17.07
2023-02-14T19:42:10.676Z,16.03
2023-02-14T19:47:27.180Z,12.87
2023-02-14T19:52:33.233Z,16.13
2023-02-14T19:57:35.244Z,17.07
2023-02-14T20:02:37.314Z,18.33
2023-02-14T20:07:39.336Z,18.90
2023-02-14T20:12:41.807Z,14.83
2023-02-14T20:17:43.909Z,22.00
2023-02-14T20:22:45.927Z,26.73
2023-02-14T20:27:48.031Z,21.90
2023-02-14T20:32:51.783Z,17.30
2023-02-14T20:37:55.075Z,17.40
2023-02-14T20:42:57.060Z,19.17
2023-02-14T20:48:03.375Z,20.33
2023-02-14T20:53:05.465Z,16.30
2023-02-14T20:58:08.035Z,15.23
2023-02-14T21:03:10.257Z,18.57
2023-02-14T21:08:12.266Z,13.07
2023-02-14T21:13:14.343Z,15.17
2023-02-14T21:18:16.816Z,16.00
2023-02-14T21:23:19.058Z,13.70
2023-02-14T21:28:21.351Z,16.40
2023-02-14T21:33:25.428Z,15.70
2023-02-14T21:38:28.429Z,17.87
2023-02-14T21:43:35.719Z,19.23
2023-02-14T21:48:58.805Z,18.30
2023-02-14T21:54:00.948Z,19.63
2023-02-14T21:59:03.206Z,17.43
2023-02-14T22:04:09.219Z,18.43
2023-02-14T22:09:17.592Z,15.40
2023-02-14T22:14:20.021Z,16.80
2023-02-14T22:19:22.993Z,16.67
2023-02-14T22:24:25.482Z,17.23
2023-02-14T22:29:29.103Z,16.70
2023-02-14T22:34:31.519Z,16.83
2023-02-14T22:39:33.606Z,15.83
2023-02-14T22:44:35.685Z,18.53
2023-02-14T22:49:37.839Z,16.67
2023-02-14T22:54:40.219Z,15.17
2023-02-14T22:59:42.529Z,16.17
2023-02-14T23:04:44.838Z,14.40
2023-02-14T23:09:48.655Z,20.20
2023-02-14T23:15:10.197Z,17.43
2023-02-14T23:20:31.295Z,20.17
2023-02-14T23:25:33.706Z,13.77
2023-02-14T23:30:36.380Z,14.87
2023-02-14T23:35:38.814Z,15.63
2023-02-14T23:40:59.983Z,16.27
2023-02-14T23:46:02.871Z,17.37
2023-02-14T23:51:05.453Z,15.63
2023-02-14T23:56:08.089Z,15.70
